Airfield :
LOGIN :

Register | Disclaimer

   EN    FR    IT 

 










Legend :    VFR   Marginal VFR   IFR   Intensive IFR   Very Intensive IFR
Visi :
Ceiling :
>= 8 km
>= 3000ft
5 to 8 km
1000 to 3000 ft
1500m to 5 km
500 to 1000 ft
800 to 1500m
200 to 500 ft
< 800m
< 200 ft
Symbols :   Thunderstorms  Fog  Heavy snow  Heavy precipitations  Wind > 20 kt
SIGMETs :     Misc.  Thunderstorms  Icing  Turbulence  Mountain Waves  Volcanic Ashes






- Airport Elevation : 364 ft


LFAQ - Albert Bray

CURRENT METAR :
  • 260100Z AUTO 25008KT 4000 BR BKN005 OVC020 16/16 Q1009

EXPIRED METARs :
  • 260030Z AUTO 27007KT 4700 BR BKN006 OVC017 16/16 Q1009
  • 260000Z AUTO 28009KT 6000 BKN005 OVC013 16/16 Q1009
  • 252330Z AUTO 27009KT 8000 BKN005 OVC011 16/16 Q1009
  • 252300Z AUTO 28009KT 9999 BKN009/// OVC070/// ///TCU 16/16 Q1008
  • 252230Z AUTO 29007KT 9999 FEW004/// SCT011/// OVC058/// ///CB 17/16 Q1008

Expired Forecast.



MET'MAP, your aeronautical weather chart ! - Copyright ORBIFLY December 2007 - Disclaimer

ORBIFLY MET'MAP TEAM :

Programming & Development : Alexandra Zaïnal
Concept & original design : Baudouin d'Aumeries
Assistance for programming : Marc-Olivier Méhu
Technical & hardware support : Manuel Goepfert

Contact : metmap@orbifly.com




SOURCES & CREDITS :

   NOAA